createdAt,value
2018-08-20T00:00:38.980Z,10.35
2018-08-20T00:01:45.096Z,9.95
2018-08-20T00:02:50.891Z,9.13
2018-08-20T00:03:56.435Z,10.40
2018-08-20T00:05:02.389Z,10.50
2018-08-20T00:06:07.439Z,10.15
2018-08-20T00:07:13.486Z,9.43
2018-08-20T00:08:18.942Z,9.75
2018-08-20T00:09:34.822Z,10.03
2018-08-20T00:10:40.634Z,9.55
2018-08-20T00:11:46.457Z,10.82
2018-08-20T00:12:52.273Z,10.13
2018-08-20T00:13:57.839Z,9.10
2018-08-20T00:15:03.333Z,10.58
2018-08-20T00:16:08.513Z,9.83
2018-08-20T00:17:14.231Z,9.05
2018-08-20T00:18:24.515Z,10.25
2018-08-20T00:19:30.334Z,9.63
2018-08-20T00:20:35.735Z,9.68
2018-08-20T00:21:40.994Z,10.03
2018-08-20T00:22:46.776Z,9.90
2018-08-20T00:23:52.630Z,9.65
2018-08-20T00:25:07.927Z,10.38
2018-08-20T00:26:13.187Z,9.00
2018-08-20T00:27:18.647Z,9.15
2018-08-20T00:28:24.010Z,8.83
2018-08-20T00:29:30.079Z,9.48
2018-08-20T00:30:35.539Z,9.63
2018-08-20T00:31:41.316Z,9.28
2018-08-20T00:32:47.958Z,10.23
2018-08-20T00:33:54.168Z,10.03
2018-08-20T00:35:00.278Z,9.20
2018-08-20T00:36:09.012Z,10.18
2018-08-20T00:37:13.845Z,10.23
2018-08-20T00:38:19.504Z,9.98
2018-08-20T00:39:25.091Z,9.63
2018-08-20T00:40:29.521Z,10.43
2018-08-20T00:41:34.889Z,10.60
2018-08-20T00:42:40.294Z,10.05
2018-08-20T00:43:45.993Z,10.35
2018-08-20T00:44:51.465Z,10.18
2018-08-20T00:45:57.228Z,10.48
2018-08-20T00:47:02.506Z,9.23
2018-08-20T00:48:08.708Z,9.48
2018-08-20T00:49:14.990Z,10.35
2018-08-20T00:50:20.606Z,10.50
2018-08-20T00:51:26.306Z,10.75
2018-08-20T00:52:31.553Z,10.15
2018-08-20T00:53:36.867Z,9.85
2018-08-20T00:54:42.468Z,10.40
2018-08-20T00:55:48.230Z,10.30
2018-08-20T00:56:53.738Z,10.82
2018-08-20T00:57:59.361Z,10.80
2018-08-20T00:59:05.230Z,10.35
2018-08-20T01:00:11.928Z,10.13
2018-08-20T01:01:17.455Z,10.78
2018-08-20T01:02:27.674Z,10.23
2018-08-20T01:03:33.118Z,11.35
2018-08-20T01:04:38.593Z,11.08
2018-08-20T01:05:43.746Z,10.20
2018-08-20T01:06:49.200Z,10.20
2018-08-20T01:07:54.623Z,9.90
2018-08-20T01:08:59.889Z,10.80
2018-08-20T01:10:06.535Z,11.55
2018-08-20T01:11:11.877Z,10.35
2018-08-20T01:12:17.565Z,11.55
2018-08-20T01:13:22.297Z,9.33
2018-08-20T01:14:26.928Z,11.08
2018-08-20T01:15:31.776Z,10.23
2018-08-20T01:16:37.027Z,10.93
2018-08-20T01:17:42.480Z,11.05
2018-08-20T01:18:47.700Z,11.60
2018-08-20T01:19:53.364Z,11.57
2018-08-20T01:20:58.948Z,11.40
2018-08-20T01:22:04.521Z,11.48
2018-08-20T01:23:12.629Z,11.10
2018-08-20T01:24:21.499Z,11.38
2018-08-20T01:25:28.047Z,12.10
2018-08-20T01:26:34.695Z,10.28
2018-08-20T01:27:46.790Z,11.73
2018-08-20T01:28:56.128Z,11.30
2018-08-20T01:30:03.154Z,10.32
2018-08-20T01:31:09.200Z,10.65
2018-08-20T01:32:16.142Z,11.35
2018-08-20T01:33:22.416Z,10.93
2018-08-20T01:34:27.604Z,10.98
2018-08-20T01:35:35.512Z,11.45
2018-08-20T01:36:43.392Z,11.95
2018-08-20T01:37:50.596Z,11.50
2018-08-20T01:38:57.633Z,10.50
2018-08-20T01:40:04.689Z,12.30
2018-08-20T01:41:11.823Z,11.38
2018-08-20T01:42:17.231Z,11.25
2018-08-20T01:43:21.969Z,11.55
2018-08-20T01:44:26.590Z,11.08
2018-08-20T01:45:31.191Z,11.55
2018-08-20T01:46:35.800Z,10.95
2018-08-20T01:47:40.004Z,11.93
2018-08-20T01:48:44.739Z,10.98
2018-08-20T01:49:49.192Z,12.23
2018-08-20T01:50:53.845Z,11.78
2018-08-20T01:51:58.419Z,12.20
2018-08-20T01:53:03.058Z,12.50
2018-08-20T01:54:07.691Z,11.10
2018-08-20T01:55:11.857Z,11.45
2018-08-20T01:56:16.195Z,10.80
2018-08-20T01:57:20.605Z,10.90
2018-08-20T01:58:25.045Z,10.82
2018-08-20T01:59:29.786Z,10.93
2018-08-20T02:00:34.105Z,10.90
2018-08-20T02:01:38.517Z,11.70
2018-08-20T02:02:42.915Z,11.73
2018-08-20T02:03:47.039Z,11.40
2018-08-20T02:04:51.388Z,10.80
2018-08-20T02:05:55.750Z,11.80
2018-08-20T02:07:00.269Z,11.75
2018-08-20T02:08:04.619Z,11.10
2018-08-20T02:09:09.566Z,11.35
2018-08-20T02:10:14.058Z,12.03
2018-08-20T02:11:18.522Z,11.73
2018-08-20T02:12:23.002Z,10.63
2018-08-20T02:13:27.391Z,11.65
2018-08-20T02:14:31.615Z,10.55
2018-08-20T02:15:36.156Z,11.10
2018-08-20T02:16:40.342Z,11.55
2018-08-20T02:17:45.012Z,12.03
2018-08-20T02:18:49.362Z,11.08
2018-08-20T02:19:53.725Z,12.18
2018-08-20T02:20:57.898Z,12.33
2018-08-20T02:22:02.402Z,11.85
2018-08-20T02:23:07.159Z,11.68
2018-08-20T02:24:11.434Z,11.57
2018-08-20T02:25:15.653Z,11.65
2018-08-20T02:26:19.767Z,12.20
2018-08-20T02:27:24.221Z,11.83
2018-08-20T02:28:28.610Z,12.20
2018-08-20T02:29:33.177Z,12.45
2018-08-20T02:30:37.498Z,12.25
2018-08-20T02:31:42.065Z,11.78
2018-08-20T02:32:46.404Z,12.25
2018-08-20T02:33:50.624Z,12.13
2018-08-20T02:34:54.842Z,12.37
2018-08-20T02:35:59.115Z,12.50
2018-08-20T02:37:03.782Z,12.30
2018-08-20T02:38:07.985Z,11.38
2018-08-20T02:39:13.764Z,11.85
2018-08-20T02:40:18.744Z,12.65
2018-08-20T02:41:23.198Z,12.55
2018-08-20T02:42:27.573Z,12.13
2018-08-20T02:43:32.296Z,12.60
2018-08-20T02:44:36.459Z,12.13
2018-08-20T02:45:40.808Z,12.93
2018-08-20T02:46:49.663Z,12.37
2018-08-20T02:47:53.831Z,11.73
2018-08-20T02:48:58.166Z,13.40
2018-08-20T02:50:02.702Z,11.83
2018-08-20T02:51:07.001Z,12.33
2018-08-20T02:52:11.343Z,11.88
2018-08-20T02:53:15.653Z,13.45
2018-08-20T02:54:19.756Z,12.60
2018-08-20T02:55:24.065Z,12.82
2018-08-20T02:56:28.464Z,13.65
2018-08-20T02:57:32.836Z,12.53
2018-08-20T02:58:37.327Z,12.58
2018-08-20T02:59:41.420Z,12.18
2018-08-20T03:00:45.811Z,12.60
2018-08-20T03:01:49.947Z,13.25
2018-08-20T03:02:54.275Z,11.83
2018-08-20T03:03:58.481Z,13.10
2018-08-20T03:05:02.727Z,12.63
2018-08-20T03:06:06.989Z,13.00
2018-08-20T03:07:11.353Z,12.28
2018-08-20T03:08:15.533Z,11.97
2018-08-20T03:09:19.805Z,11.73
2018-08-20T03:10:24.047Z,12.45
2018-08-20T03:11:28.254Z,13.10
2018-08-20T03:12:32.751Z,13.65
2018-08-20T03:13:36.897Z,12.05
2018-08-20T03:14:41.366Z,13.65
2018-08-20T03:15:45.509Z,13.13
2018-08-20T03:16:49.796Z,12.90
2018-08-20T03:17:54.132Z,14.63
2018-08-20T03:18:58.296Z,12.20
2018-08-20T03:20:02.899Z,12.65
2018-08-20T03:21:07.298Z,13.18
2018-08-20T03:22:11.494Z,12.63
2018-08-20T03:23:15.728Z,13.32
2018-08-20T03:24:20.516Z,13.72
2018-08-20T03:25:24.696Z,13.28
2018-08-20T03:26:29.213Z,12.90
2018-08-20T03:27:33.400Z,13.43
2018-08-20T03:28:37.773Z,13.10
2018-08-20T03:29:42.028Z,12.85
2018-08-20T03:30:46.327Z,13.32
2018-08-20T03:31:50.511Z,12.20
2018-08-20T03:32:54.839Z,12.15
2018-08-20T03:33:59.263Z,13.32
2018-08-20T03:35:03.811Z,13.03
2018-08-20T03:36:08.102Z,13.88
2018-08-20T03:37:12.786Z,12.98
2018-08-20T03:38:16.974Z,13.20
2018-08-20T03:39:21.376Z,13.30
2018-08-20T03:40:25.530Z,13.00
2018-08-20T03:41:29.697Z,12.25
2018-08-20T03:42:34.274Z,12.63
2018-08-20T03:43:38.506Z,12.55
2018-08-20T03:44:42.651Z,13.05
2018-08-20T03:45:46.840Z,12.53
2018-08-20T03:46:51.076Z,13.22
2018-08-20T03:47:55.268Z,13.40
2018-08-20T03:48:59.573Z,12.58
2018-08-20T03:50:04.931Z,12.60
2018-08-20T03:51:09.198Z,12.78
2018-08-20T03:52:13.353Z,13.35
2018-08-20T03:53:17.776Z,12.43
2018-08-20T03:54:22.137Z,13.13
2018-08-20T03:55:26.388Z,13.05
2018-08-20T03:56:30.773Z,13.40
2018-08-20T03:57:35.380Z,14.18
2018-08-20T03:58:39.726Z,13.30
2018-08-20T03:59:43.949Z,13.18
2018-08-20T04:00:48.277Z,12.63
2018-08-20T04:01:52.736Z,13.30
2018-08-20T04:02:56.946Z,13.20
2018-08-20T04:04:01.456Z,12.15
2018-08-20T04:05:05.875Z,12.95
2018-08-20T04:06:10.177Z,12.60
2018-08-20T04:07:14.331Z,13.05
2018-08-20T04:08:18.487Z,12.88
2018-08-20T04:09:22.743Z,12.70
2018-08-20T04:10:26.999Z,12.73
2018-08-20T04:11:31.331Z,12.68
2018-08-20T04:12:35.800Z,11.73
2018-08-20T04:13:40.256Z,12.80
2018-08-20T04:14:44.710Z,12.58
2018-08-20T04:15:48.803Z,12.47
2018-08-20T04:16:53.169Z,12.30
2018-08-20T04:17:57.433Z,13.62
2018-08-20T04:19:06.034Z,15.00
2018-08-20T04:20:10.153Z,13.18
2018-08-20T04:21:15.058Z,14.38
2018-08-20T04:22:19.397Z,13.25
2018-08-20T04:23:23.777Z,14.15
2018-08-20T04:24:28.187Z,13.15
2018-08-20T04:25:32.553Z,13.62
2018-08-20T04:26:37.074Z,12.63
2018-08-20T04:27:41.315Z,12.43
2018-08-20T04:28:45.521Z,13.75
2018-08-20T04:29:50.045Z,18.15
2018-08-20T04:30:54.649Z,14.73
2018-08-20T04:31:58.992Z,15.13
2018-08-20T04:33:03.400Z,13.60
2018-08-20T04:34:07.894Z,13.10
2018-08-20T04:35:12.344Z,13.00
2018-08-20T04:36:16.561Z,13.68
2018-08-20T04:37:20.852Z,12.68
2018-08-20T04:38:24.972Z,13.88
2018-08-20T04:39:29.161Z,13.88
2018-08-20T04:40:33.526Z,14.03
2018-08-20T04:41:37.863Z,12.55
2018-08-20T04:42:42.204Z,12.60
2018-08-20T04:43:46.395Z,13.40
2018-08-20T04:44:50.700Z,12.58
2018-08-20T04:45:54.848Z,13.05
2018-08-20T04:46:59.182Z,12.40
2018-08-20T04:48:03.329Z,12.70
2018-08-20T04:49:07.552Z,12.53
2018-08-20T04:50:12.596Z,13.00
2018-08-20T04:51:16.875Z,13.95
2018-08-20T04:52:21.103Z,12.45
2018-08-20T04:53:25.427Z,15.00
2018-08-20T04:54:29.615Z,13.55
2018-08-20T04:55:34.110Z,12.85
2018-08-20T04:56:38.542Z,14.65
2018-08-20T04:57:42.861Z,13.40
2018-08-20T04:58:47.433Z,13.00
2018-08-20T04:59:51.717Z,12.43
2018-08-20T05:00:56.314Z,14.98
2018-08-20T05:02:01.018Z,13.25
2018-08-20T05:03:05.382Z,13.55
2018-08-20T05:04:09.859Z,13.60
2018-08-20T05:05:14.169Z,13.95
2018-08-20T05:06:18.755Z,12.95
2018-08-20T05:07:23.118Z,13.65
2018-08-20T05:08:27.466Z,13.75
2018-08-20T05:09:31.730Z,14.13
2018-08-20T05:10:35.897Z,13.22
2018-08-20T05:11:40.056Z,12.53
2018-08-20T05:12:44.752Z,13.68
2018-08-20T05:13:48.970Z,13.08
2018-08-20T05:14:53.192Z,13.05
2018-08-20T05:15:57.633Z,12.50
2018-08-20T05:17:01.897Z,12.33
2018-08-20T05:18:06.479Z,14.20
2018-08-20T05:19:10.769Z,14.78
2018-08-20T05:20:14.960Z,13.65
2018-08-20T05:21:19.381Z,13.18
2018-08-20T05:22:23.649Z,13.53
2018-08-20T05:23:27.883Z,14.13
2018-08-20T05:24:32.125Z,13.28
2018-08-20T05:25:36.331Z,12.73
2018-08-20T05:26:40.564Z,13.53
2018-08-20T05:27:44.677Z,13.55
2018-08-20T05:28:48.932Z,13.28
2018-08-20T05:29:53.436Z,14.55
2018-08-20T05:30:57.648Z,13.00
2018-08-20T05:32:02.106Z,12.15
2018-08-20T05:33:06.756Z,13.10
2018-08-20T05:34:11.010Z,13.08
2018-08-20T05:35:15.538Z,12.82
2018-08-20T05:36:20.090Z,12.37
2018-08-20T05:37:24.342Z,12.43
2018-08-20T05:38:28.467Z,13.20
2018-08-20T05:39:32.660Z,12.55
2018-08-20T05:40:37.136Z,14.33
2018-08-20T05:41:41.586Z,13.68
2018-08-20T05:42:45.974Z,13.53
2018-08-20T05:43:50.299Z,13.78
2018-08-20T05:44:54.842Z,12.90
2018-08-20T05:45:59.184Z,12.43
2018-08-20T05:47:03.910Z,12.80
2018-08-20T05:48:08.298Z,13.75
2018-08-20T05:49:12.866Z,12.88
2018-08-20T05:50:17.069Z,12.25
2018-08-20T05:51:21.285Z,13.15
2018-08-20T05:52:25.670Z,13.25
2018-08-20T05:53:30.144Z,14.28
2018-08-20T05:54:34.839Z,14.03
2018-08-20T05:55:39.281Z,13.68
2018-08-20T05:56:43.621Z,12.73
2018-08-20T05:57:47.884Z,12.65
2018-08-20T05:58:52.356Z,13.22
2018-08-20T05:59:56.626Z,12.07
2018-08-20T06:01:00.807Z,12.95
2018-08-20T06:02:05.311Z,12.85
2018-08-20T06:03:09.485Z,12.93
2018-08-20T06:04:13.580Z,12.37
2018-08-20T06:05:17.914Z,12.82
2018-08-20T06:06:22.120Z,11.93
2018-08-20T06:07:26.420Z,11.75
2018-08-20T06:08:30.661Z,11.78
2018-08-20T06:09:35.530Z,11.95
2018-08-20T06:10:39.850Z,11.25
2018-08-20T06:11:44.058Z,12.07
2018-08-20T06:12:48.508Z,11.80
2018-08-20T06:13:52.955Z,11.30
2018-08-20T06:14:57.297Z,12.20
2018-08-20T06:16:01.738Z,12.45
2018-08-20T06:17:06.226Z,11.75
2018-08-20T06:18:10.457Z,12.25
2018-08-20T06:19:14.663Z,13.28
2018-08-20T06:20:19.119Z,12.82
2018-08-20T06:21:23.591Z,12.25
2018-08-20T06:22:28.237Z,11.83
2018-08-20T06:23:32.768Z,10.70
2018-08-20T06:24:37.099Z,10.65
2018-08-20T06:25:41.369Z,10.60
2018-08-20T06:26:45.777Z,10.78
2018-08-20T06:27:49.941Z,10.72
2018-08-20T06:28:54.142Z,11.10
2018-08-20T06:29:58.328Z,10.30
2018-08-20T06:31:02.801Z,9.80
2018-08-20T06:32:07.078Z,10.63
2018-08-20T06:33:11.243Z,9.58
2018-08-20T06:34:15.416Z,11.73
2018-08-20T06:35:19.670Z,10.82
2018-08-20T06:36:24.027Z,10.82
2018-08-20T06:37:28.431Z,9.40
2018-08-20T06:38:32.638Z,10.60
2018-08-20T06:39:36.946Z,10.15
2018-08-20T06:40:41.201Z,9.98
2018-08-20T06:41:45.489Z,10.60
2018-08-20T06:42:49.755Z,11.00
2018-08-20T06:43:54.327Z,10.03
2018-08-20T06:44:58.774Z,9.00
2018-08-20T06:46:02.970Z,9.78
2018-08-20T06:47:07.260Z,8.65
2018-08-20T06:48:11.852Z,9.20
2018-08-20T06:49:16.131Z,10.30
2018-08-20T06:50:20.429Z,9.10
2018-08-20T06:51:24.880Z,10.40
2018-08-20T06:52:29.387Z,10.00
2018-08-20T06:53:33.678Z,9.65
2018-08-20T06:54:37.945Z,9.98
2018-08-20T06:55:42.099Z,9.93
2018-08-20T06:56:46.689Z,9.10
2018-08-20T06:57:51.028Z,10.53
2018-08-20T06:58:55.546Z,9.33
2018-08-20T06:59:59.661Z,9.70
2018-08-20T07:01:04.139Z,9.53
2018-08-20T07:02:08.334Z,10.30
2018-08-20T07:03:12.604Z,9.55
2018-08-20T07:04:17.044Z,8.23
2018-08-20T07:05:21.693Z,9.48
2018-08-20T07:06:26.052Z,8.68
2018-08-20T07:07:30.309Z,9.03
2018-08-20T07:08:34.389Z,9.35
2018-08-20T07:09:38.750Z,7.87
2018-08-20T07:10:46.317Z,8.75
2018-08-20T07:11:50.620Z,9.50
2018-08-20T07:12:55.489Z,8.05
2018-08-20T07:13:59.750Z,9.23
2018-08-20T07:15:04.052Z,8.60
2018-08-20T07:16:09.070Z,9.05
2018-08-20T07:17:13.717Z,9.23
2018-08-20T07:18:17.855Z,8.55
2018-08-20T07:19:21.993Z,8.28
2018-08-20T07:20:26.681Z,8.15
2018-08-20T07:21:30.999Z,7.60
2018-08-20T07:22:35.202Z,7.87
2018-08-20T07:23:39.726Z,7.60
2018-08-20T07:24:44.127Z,8.33
2018-08-20T07:25:48.415Z,8.50
2018-08-20T07:26:52.666Z,7.20
2018-08-20T07:27:56.820Z,7.58
2018-08-20T07:29:01.327Z,7.90
2018-08-20T07:30:08.145Z,8.03
2018-08-20T07:31:12.477Z,6.55
2018-08-20T07:32:17.440Z,7.50
2018-08-20T07:33:21.791Z,7.45
2018-08-20T07:34:26.030Z,7.47
2018-08-20T07:35:30.312Z,7.67
2018-08-20T07:36:34.664Z,8.05
2018-08-20T07:37:38.943Z,7.20
2018-08-20T07:38:43.324Z,7.35
2018-08-20T07:39:48.754Z,7.40
2018-08-20T07:40:53.105Z,6.90
2018-08-20T07:41:57.677Z,6.78
2018-08-20T07:43:01.922Z,7.15
2018-08-20T07:44:06.274Z,6.45
2018-08-20T07:45:10.912Z,7.35
2018-08-20T07:46:15.278Z,8.28
2018-08-20T07:47:19.487Z,6.47
2018-08-20T07:48:23.643Z,6.33
2018-08-20T07:49:27.831Z,6.42
2018-08-20T07:50:32.202Z,6.75
2018-08-20T07:51:36.642Z,6.12
2018-08-20T07:52:41.030Z,5.95
2018-08-20T07:53:45.659Z,7.17
2018-08-20T07:54:49.952Z,6.67
2018-08-20T07:55:54.211Z,6.65
2018-08-20T07:56:58.745Z,7.37
2018-08-20T07:58:02.989Z,5.97
2018-08-20T07:59:07.486Z,6.85
2018-08-20T08:00:11.765Z,6.33
2018-08-20T08:01:15.933Z,5.97
2018-08-20T08:02:20.403Z,6.30
2018-08-20T08:03:24.542Z,5.65
2018-08-20T08:04:29.162Z,6.60
2018-08-20T08:05:33.351Z,6.40
2018-08-20T08:06:37.912Z,6.95
2018-08-20T08:07:42.315Z,6.35
2018-08-20T08:08:46.655Z,6.25
2018-08-20T08:09:50.718Z,6.25
2018-08-20T08:10:55.202Z,8.50
2018-08-20T08:11:59.592Z,6.60
2018-08-20T08:13:03.933Z,5.97
2018-08-20T08:14:08.153Z,5.97
2018-08-20T08:15:13.886Z,6.15
2018-08-20T08:16:18.238Z,5.67
2018-08-20T08:17:22.358Z,5.55
2018-08-20T08:18:26.619Z,6.03
2018-08-20T08:19:30.892Z,5.80
2018-08-20T08:20:35.346Z,5.60
2018-08-20T08:21:39.526Z,5.55
2018-08-20T08:22:44.080Z,5.80
2018-08-20T08:23:48.414Z,5.53
2018-08-20T08:24:52.871Z,5.62
2018-08-20T08:25:57.134Z,6.35
2018-08-20T08:27:01.382Z,5.72
2018-08-20T08:28:05.772Z,6.10
2018-08-20T08:29:10.266Z,6.22
2018-08-20T08:30:16.735Z,5.92
2018-08-20T08:31:20.905Z,6.17
2018-08-20T08:32:25.156Z,6.47
2018-08-20T08:33:29.298Z,5.80
2018-08-20T08:34:33.769Z,6.53
2018-08-20T08:35:38.057Z,6.03
2018-08-20T08:36:42.631Z,5.42
2018-08-20T08:37:46.678Z,6.00
2018-08-20T08:38:51.100Z,5.95
2018-08-20T08:39:55.398Z,6.35
2018-08-20T08:40:59.865Z,6.35
2018-08-20T08:42:04.093Z,5.17
2018-08-20T08:43:08.269Z,5.87
2018-08-20T08:44:12.750Z,6.08
2018-08-20T08:45:18.552Z,5.92
2018-08-20T08:46:23.029Z,6.05
2018-08-20T08:47:27.224Z,5.55
2018-08-20T08:48:31.369Z,5.70
2018-08-20T08:49:35.704Z,5.60
2018-08-20T08:50:40.008Z,5.10
2018-08-20T08:51:44.317Z,5.83
2018-08-20T08:52:48.754Z,5.85
2018-08-20T08:53:53.065Z,5.35
2018-08-20T08:54:57.305Z,5.15
2018-08-20T08:56:01.375Z,5.15
2018-08-20T08:57:05.838Z,6.12
2018-08-20T08:58:10.165Z,5.60
2018-08-20T08:59:14.497Z,5.35
2018-08-20T09:00:20.225Z,5.37
2018-08-20T09:01:24.384Z,5.90
2018-08-20T09:02:28.676Z,5.30
2018-08-20T09:03:32.913Z,6.08
2018-08-20T09:04:37.522Z,6.03
2018-08-20T09:05:42.030Z,6.03
2018-08-20T09:06:46.313Z,5.30
2018-08-20T09:07:50.600Z,5.58
2018-08-20T09:08:54.723Z,4.80
2018-08-20T09:09:59.133Z,5.62
2018-08-20T09:11:03.408Z,5.60
2018-08-20T09:12:07.725Z,5.62
2018-08-20T09:13:12.476Z,4.85
2018-08-20T09:14:16.621Z,6.00
2018-08-20T09:15:20.942Z,4.70
2018-08-20T09:16:25.119Z,5.95
2018-08-20T09:17:29.447Z,4.80
2018-08-20T09:18:33.807Z,5.00
2018-08-20T09:19:38.276Z,5.50
2018-08-20T09:20:42.726Z,4.97
2018-08-20T09:21:47.079Z,4.87
2018-08-20T09:22:51.554Z,5.67
2018-08-20T09:23:55.733Z,5.70
2018-08-20T09:25:00.213Z,5.85
2018-08-20T09:26:04.496Z,5.42
2018-08-20T09:27:08.792Z,6.35
2018-08-20T09:28:12.992Z,6.80
2018-08-20T09:29:17.186Z,5.67
2018-08-20T09:30:22.836Z,6.37
2018-08-20T09:31:26.982Z,4.87
2018-08-20T09:32:31.478Z,4.70
2018-08-20T09:33:35.658Z,5.50
2018-08-20T09:34:39.710Z,5.22
2018-08-20T09:35:44.067Z,6.12
2018-08-20T09:36:48.317Z,5.40
2018-08-20T09:37:52.894Z,5.08
2018-08-20T09:38:57.196Z,5.72
2018-08-20T09:40:01.414Z,5.42
2018-08-20T09:41:05.837Z,4.70
2018-08-20T09:42:09.994Z,5.50
2018-08-20T09:43:14.328Z,5.60
2018-08-20T09:44:18.952Z,5.12
2018-08-20T09:45:23.135Z,5.17
2018-08-20T09:46:27.313Z,4.70
2018-08-20T09:47:31.651Z,4.60
2018-08-20T09:48:35.774Z,5.00
2018-08-20T09:49:40.047Z,5.78
2018-08-20T09:50:44.532Z,5.05
2018-08-20T09:51:48.735Z,5.20
2018-08-20T09:52:53.085Z,4.95
2018-08-20T09:53:57.205Z,4.67
2018-08-20T09:55:01.393Z,5.17
2018-08-20T09:56:05.657Z,5.10
2018-08-20T09:57:10.025Z,5.00
2018-08-20T09:58:14.114Z,5.30
2018-08-20T09:59:18.432Z,5.00
2018-08-20T10:00:28.267Z,4.97
2018-08-20T10:01:32.794Z,5.05
2018-08-20T10:02:37.250Z,4.92
2018-08-20T10:03:45.743Z,5.53
2018-08-20T10:04:50.160Z,5.37
2018-08-20T10:05:54.626Z,5.37
2018-08-20T10:06:59.033Z,5.58
2018-08-20T10:08:03.127Z,4.67
2018-08-20T10:09:07.833Z,5.30
2018-08-20T10:10:11.916Z,5.85
2018-08-20T10:11:16.048Z,5.08
2018-08-20T10:12:20.382Z,5.53
2018-08-20T10:13:24.649Z,5.12
2018-08-20T10:14:29.075Z,5.50
2018-08-20T10:15:33.437Z,5.92
2018-08-20T10:16:37.750Z,5.30
2018-08-20T10:17:42.206Z,5.92
2018-08-20T10:18:46.782Z,5.90
2018-08-20T10:19:51.153Z,5.95
2018-08-20T10:20:55.866Z,6.10
2018-08-20T10:22:00.321Z,5.92
2018-08-20T10:23:04.590Z,5.58
2018-08-20T10:24:08.933Z,5.55
2018-08-20T10:25:13.549Z,5.25
2018-08-20T10:26:17.616Z,5.20
2018-08-20T10:27:21.797Z,5.72
2018-08-20T10:28:26.139Z,5.85
2018-08-20T10:29:30.578Z,5.72
2018-08-20T10:30:35.083Z,5.58
2018-08-20T10:31:39.302Z,5.55
2018-08-20T10:32:43.618Z,6.30
2018-08-20T10:33:48.232Z,5.40
2018-08-20T10:34:52.753Z,6.08
2018-08-20T10:35:56.949Z,6.28
2018-08-20T10:37:01.347Z,6.03
2018-08-20T10:38:06.125Z,5.87
2018-08-20T10:39:11.759Z,6.67
2018-08-20T10:40:15.827Z,6.37
2018-08-20T10:41:20.107Z,5.95
2018-08-20T10:42:24.484Z,5.35
2018-08-20T10:43:29.223Z,6.50
2018-08-20T10:44:37.747Z,5.83
2018-08-20T10:45:47.578Z,6.08
2018-08-20T10:46:51.744Z,6.70
2018-08-20T10:47:56.317Z,7.10
2018-08-20T10:49:00.513Z,5.97
2018-08-20T10:50:05.148Z,5.80
2018-08-20T10:51:09.272Z,5.72
2018-08-20T10:52:13.636Z,5.08
2018-08-20T10:53:17.781Z,5.72
2018-08-20T10:54:22.103Z,6.05
2018-08-20T10:55:26.499Z,5.83
2018-08-20T10:56:30.606Z,5.60
2018-08-20T10:57:34.980Z,5.87
2018-08-20T10:58:39.128Z,6.20
2018-08-20T10:59:43.733Z,6.62
2018-08-20T11:00:48.060Z,6.40
2018-08-20T11:01:52.290Z,5.55
2018-08-20T11:02:56.648Z,5.80
2018-08-20T11:04:00.933Z,6.05
2018-08-20T11:05:05.932Z,6.20
2018-08-20T11:06:10.087Z,6.03
2018-08-20T11:07:14.463Z,5.78
2018-08-20T11:08:18.674Z,5.62
2018-08-20T11:09:22.831Z,5.50
2018-08-20T11:10:27.131Z,6.53
2018-08-20T11:11:31.477Z,6.95
2018-08-20T11:12:35.819Z,6.60
2018-08-20T11:13:40.140Z,10.10
2018-08-20T11:14:44.418Z,6.33
2018-08-20T11:15:48.729Z,5.50
2018-08-20T11:16:53.119Z,5.70
2018-08-20T11:17:57.564Z,6.35
2018-08-20T11:19:01.699Z,5.97
2018-08-20T11:20:09.419Z,6.03
2018-08-20T11:21:13.900Z,5.95
2018-08-20T11:22:18.374Z,6.10
2018-08-20T11:23:22.605Z,5.80
2018-08-20T11:24:26.873Z,5.40
2018-08-20T11:25:31.230Z,6.10
2018-08-20T11:26:35.529Z,5.25
2018-08-20T11:27:39.877Z,6.05
2018-08-20T11:28:44.259Z,5.90
2018-08-20T11:29:48.423Z,6.00
2018-08-20T11:30:52.821Z,5.80
2018-08-20T11:31:57.053Z,6.08
2018-08-20T11:33:01.621Z,6.08
2018-08-20T11:34:05.938Z,5.83
2018-08-20T11:35:10.976Z,5.70
2018-08-20T11:36:15.374Z,6.00
2018-08-20T11:37:19.647Z,5.80
2018-08-20T11:38:24.309Z,5.67
2018-08-20T11:39:28.430Z,6.10
2018-08-20T11:40:32.718Z,6.95
2018-08-20T11:41:37.126Z,6.10
2018-08-20T11:42:41.377Z,6.50
2018-08-20T11:43:45.548Z,6.75
2018-08-20T11:44:49.929Z,7.10
2018-08-20T11:45:54.196Z,7.67
2018-08-20T11:46:58.289Z,6.83
2018-08-20T11:48:02.601Z,5.90
2018-08-20T11:49:06.945Z,6.72
2018-08-20T11:50:11.297Z,6.50
2018-08-20T11:51:15.382Z,5.92
2018-08-20T11:52:19.968Z,6.00
2018-08-20T11:53:24.131Z,7.25
2018-08-20T11:54:28.456Z,5.75
2018-08-20T11:55:32.762Z,5.70
2018-08-20T11:56:37.170Z,6.10
2018-08-20T11:57:41.409Z,5.58
2018-08-20T11:58:45.851Z,6.80
2018-08-20T11:59:50.063Z,5.37
2018-08-20T12:00:54.248Z,5.83
2018-08-20T12:01:58.502Z,6.17
2018-08-20T12:03:02.688Z,5.83
2018-08-20T12:04:07.061Z,6.70
2018-08-20T12:05:11.599Z,6.20
2018-08-20T12:06:16.106Z,5.55
2018-08-20T12:07:20.504Z,6.75
2018-08-20T12:08:24.701Z,4.95
2018-08-20T12:09:28.795Z,6.65
2018-08-20T12:10:33.119Z,5.33
2018-08-20T12:11:37.524Z,6.00
2018-08-20T12:12:41.707Z,5.15
2018-08-20T12:13:45.855Z,6.30
2018-08-20T12:14:50.159Z,6.90
2018-08-20T12:15:54.432Z,6.65
2018-08-20T12:16:58.566Z,5.85
2018-08-20T12:18:03.041Z,5.62
2018-08-20T12:19:07.375Z,6.37
2018-08-20T12:20:11.881Z,5.90
2018-08-20T12:21:16.174Z,5.45
2018-08-20T12:22:20.516Z,6.10
2018-08-20T12:23:24.658Z,6.22
2018-08-20T12:24:28.766Z,5.65
2018-08-20T12:25:32.938Z,5.67
2018-08-20T12:26:37.263Z,6.25
2018-08-20T12:27:41.520Z,5.85
2018-08-20T12:28:45.658Z,6.10
2018-08-20T12:29:49.989Z,5.53
2018-08-20T12:30:54.355Z,5.22
2018-08-20T12:31:58.780Z,5.22
2018-08-20T12:33:03.063Z,5.95
2018-08-20T12:34:07.288Z,5.92
2018-08-20T12:35:11.927Z,6.05
2018-08-20T12:36:16.313Z,6.15
2018-08-20T12:37:20.580Z,5.97
2018-08-20T12:38:24.867Z,5.75
2018-08-20T12:39:29.126Z,5.60
2018-08-20T12:40:33.623Z,5.90
2018-08-20T12:41:37.871Z,6.05
2018-08-20T12:42:42.141Z,5.33
2018-08-20T12:43:46.372Z,6.78
2018-08-20T12:44:51.144Z,6.20
2018-08-20T12:45:55.702Z,6.00
2018-08-20T12:46:59.967Z,5.47
2018-08-20T12:48:04.105Z,6.60
2018-08-20T12:49:08.367Z,5.53
2018-08-20T12:50:12.714Z,6.62
2018-08-20T12:51:17.123Z,5.90
2018-08-20T12:52:21.460Z,6.28
2018-08-20T12:53:25.643Z,6.80
2018-08-20T12:54:29.789Z,5.70
2018-08-20T12:55:34.286Z,6.28
2018-08-20T12:56:38.450Z,6.75
2018-08-20T12:57:42.738Z,6.58
2018-08-20T12:58:49.754Z,6.30
2018-08-20T12:59:56.242Z,6.42
2018-08-20T13:01:00.647Z,5.97
2018-08-20T13:02:05.035Z,6.42
2018-08-20T13:03:09.185Z,6.78
2018-08-20T13:04:13.443Z,6.33
2018-08-20T13:05:17.822Z,6.42
2018-08-20T13:06:21.933Z,6.53
2018-08-20T13:07:26.233Z,6.50
2018-08-20T13:08:30.713Z,6.30
2018-08-20T13:09:34.980Z,6.17
2018-08-20T13:10:39.229Z,5.80
2018-08-20T13:11:43.422Z,6.17
2018-08-20T13:12:47.707Z,6.90
2018-08-20T13:13:52.015Z,6.30
2018-08-20T13:14:56.157Z,7.10
2018-08-20T13:16:01.073Z,7.10
2018-08-20T13:17:05.534Z,5.85
2018-08-20T13:18:10.071Z,6.53
2018-08-20T13:19:14.363Z,6.70
2018-08-20T13:20:18.737Z,6.97
2018-08-20T13:21:23.223Z,5.70
2018-08-20T13:22:27.474Z,5.80
2018-08-20T13:23:31.860Z,6.37
2018-08-20T13:24:36.073Z,6.33
2018-08-20T13:25:40.471Z,7.10
2018-08-20T13:26:45.416Z,6.53
2018-08-20T13:27:49.860Z,6.20
2018-08-20T13:28:54.143Z,6.20
2018-08-20T13:29:58.634Z,6.45
2018-08-20T13:31:03.461Z,6.78
2018-08-20T13:32:07.867Z,6.75
2018-08-20T13:33:12.043Z,6.12
2018-08-20T13:34:16.208Z,6.25
2018-08-20T13:35:20.797Z,6.00
2018-08-20T13:36:24.918Z,6.15
2018-08-20T13:37:29.427Z,6.00
2018-08-20T13:38:33.643Z,5.90
2018-08-20T13:39:37.900Z,6.80
2018-08-20T13:40:42.502Z,6.60
2018-08-20T13:41:46.705Z,7.20
2018-08-20T13:42:50.962Z,6.53
2018-08-20T13:43:55.241Z,6.30
2018-08-20T13:44:59.648Z,6.55
2018-08-20T13:46:03.874Z,6.42
2018-08-20T13:47:08.034Z,6.25
2018-08-20T13:48:12.569Z,5.65
2018-08-20T13:49:17.103Z,6.00
2018-08-20T13:50:21.467Z,6.45
2018-08-20T13:51:25.814Z,6.65
2018-08-20T13:52:30.418Z,5.97
2018-08-20T13:53:34.769Z,5.83
2018-08-20T13:54:38.903Z,6.12
2018-08-20T13:55:43.186Z,6.10
2018-08-20T13:56:47.445Z,6.25
2018-08-20T13:57:52.288Z,5.83
2018-08-20T13:58:56.705Z,6.20
2018-08-20T14:00:00.838Z,6.22
2018-08-20T14:01:05.147Z,6.40
2018-08-20T14:02:09.139Z,5.65
2018-08-20T14:03:13.501Z,5.65
2018-08-20T14:04:17.629Z,6.22
2018-08-20T14:05:22.098Z,6.62
2018-08-20T14:06:26.279Z,6.72
2018-08-20T14:07:30.523Z,5.80